createdAt,value
2023-04-08T00:01:30.763Z,102099.66
2023-04-08T00:03:57.424Z,102148.38
2023-04-08T00:06:24.022Z,102143.06
2023-04-08T00:08:50.572Z,102134.63
2023-04-08T00:11:17.139Z,102144.78
2023-04-08T00:13:43.567Z,102138.78
2023-04-08T00:16:10.123Z,102145.53
2023-04-08T00:18:38.090Z,102128.56
2023-04-08T00:21:04.892Z,102139.53
2023-04-08T00:23:31.555Z,102144.78
2023-04-08T00:25:58.157Z,102118.28
2023-04-08T00:28:24.615Z,102146.56
2023-04-08T00:30:52.579Z,102098.03
2023-04-08T00:33:19.176Z,102136.72
2023-04-08T00:35:46.288Z,102112.00
2023-04-08T00:38:12.800Z,102112.88
2023-04-08T00:40:39.366Z,102159.78
2023-04-08T00:43:06.011Z,102160.56
2023-04-08T00:45:33.737Z,102159.59
2023-04-08T00:48:01.409Z,102087.50
2023-04-08T00:50:27.935Z,102153.34
2023-04-08T00:52:54.376Z,102165.69
2023-04-08T00:55:20.795Z,102154.09
2023-04-08T00:57:48.086Z,102157.81
2023-04-08T01:00:15.732Z,102163.97
2023-04-08T01:02:56.892Z,102164.94
2023-04-08T01:06:00.119Z,102161.97
2023-04-08T01:08:29.891Z,102152.84
2023-04-08T01:11:01.036Z,102154.28
2023-04-08T01:13:32.468Z,102140.91
2023-04-08T01:15:59.405Z,102086.19
2023-04-08T01:18:26.864Z,102163.13
2023-04-08T01:20:55.210Z,102162.25
2023-04-08T01:23:30.675Z,102159.50
2023-04-08T01:25:57.478Z,102150.66
2023-04-08T01:28:27.018Z,102102.25
2023-04-08T01:30:56.500Z,102157.69
2023-04-08T01:33:24.188Z,102144.59
2023-04-08T01:35:52.320Z,102156.84
2023-04-08T01:38:20.989Z,102156.75
2023-04-08T01:40:48.663Z,102150.56
2023-04-08T01:43:17.118Z,102155.03
2023-04-08T01:45:45.873Z,102159.50
2023-04-08T01:48:15.904Z,102162.16
2023-04-08T01:50:43.839Z,102151.53
2023-04-08T01:53:11.087Z,102151.63
2023-04-08T01:55:40.366Z,102150.09
2023-04-08T01:58:11.318Z,102145.63
2023-04-08T02:00:41.032Z,102108.16
2023-04-08T02:03:11.490Z,102151.03
2023-04-08T02:05:39.113Z,102132.16
2023-04-08T02:08:05.815Z,102149.56
2023-04-08T02:10:32.377Z,102106.78
2023-04-08T02:12:58.986Z,102080.69
2023-04-08T02:15:28.993Z,102141.19
2023-04-08T02:18:00.783Z,102144.97
2023-04-08T02:20:38.799Z,102140.59
2023-04-08T02:23:19.422Z,102126.19
2023-04-08T02:25:47.522Z,102134.84
2023-04-08T02:28:15.735Z,102138.16
2023-04-08T02:30:45.703Z,102087.31
2023-04-08T02:33:14.623Z,102135.38
2023-04-08T02:35:42.132Z,102108.31
2023-04-08T02:38:10.734Z,102144.34
2023-04-08T02:40:37.654Z,102134.84
2023-04-08T02:43:04.273Z,102129.75
2023-04-08T02:45:33.055Z,102123.59
2023-04-08T02:48:00.661Z,102133.28
2023-04-08T02:50:27.436Z,102082.00
2023-04-08T02:52:53.888Z,102113.72
2023-04-08T02:55:20.456Z,102128.22
2023-04-08T02:57:48.326Z,102144.88
2023-04-08T03:00:15.821Z,102116.38
2023-04-08T03:02:42.529Z,102139.63
2023-04-08T03:05:09.727Z,102145.13
2023-04-08T03:07:36.806Z,102152.16
2023-04-08T03:10:03.837Z,102158.25
2023-04-08T03:12:31.503Z,102142.19
2023-04-08T03:14:58.002Z,102045.63
2023-04-08T03:17:24.612Z,102132.16
2023-04-08T03:19:51.245Z,102156.44
2023-04-08T03:22:17.785Z,102152.06
2023-04-08T03:24:44.251Z,102144.69
2023-04-08T03:27:12.438Z,102148.97
2023-04-08T03:29:38.904Z,102125.38
2023-04-08T03:32:05.644Z,102150.84
2023-04-08T03:34:34.265Z,102175.91
2023-04-08T03:37:01.026Z,102162.16
2023-04-08T03:39:27.429Z,102134.91
2023-04-08T03:41:53.936Z,102171.53
2023-04-08T03:44:20.449Z,102146.66
2023-04-08T03:46:46.844Z,102156.34
2023-04-08T03:49:13.265Z,102171.72
2023-04-08T03:51:39.727Z,102151.59
2023-04-08T03:54:08.180Z,102167.00
2023-04-08T03:56:34.689Z,102144.09
2023-04-08T03:59:01.223Z,102188.25
2023-04-08T04:01:27.752Z,102172.66
2023-04-08T04:03:54.344Z,102153.88
2023-04-08T04:06:21.142Z,102181.31
2023-04-08T04:08:47.889Z,102184.84
2023-04-08T04:11:14.583Z,102183.22
2023-04-08T04:13:41.010Z,102195.56
2023-04-08T04:16:07.750Z,102144.34
2023-04-08T04:18:34.474Z,102198.31
2023-04-08T04:21:01.090Z,102136.25
2023-04-08T04:23:27.550Z,102140.94
2023-04-08T04:25:54.106Z,102153.06
2023-04-08T04:28:20.630Z,102203.63
2023-04-08T04:30:47.063Z,102204.78
2023-04-08T04:33:13.521Z,102187.00
2023-04-08T04:35:42.159Z,102194.59
2023-04-08T04:38:12.345Z,102153.72
2023-04-08T04:40:39.516Z,102206.00
2023-04-08T04:43:05.997Z,102192.75
2023-04-08T04:45:32.520Z,102159.69
2023-04-08T04:47:58.992Z,102205.09
2023-04-08T04:50:25.658Z,102196.53
2023-04-08T04:52:52.133Z,102220.69
2023-04-08T04:55:18.758Z,102191.00
2023-04-08T04:57:45.417Z,102223.63
2023-04-08T05:00:12.205Z,102196.66
2023-04-08T05:02:38.886Z,102234.16
2023-04-08T05:05:05.957Z,102225.00
2023-04-08T05:07:36.497Z,102236.13
2023-04-08T05:10:04.431Z,102242.91
2023-04-08T05:12:31.056Z,102236.06
2023-04-08T05:15:00.848Z,102245.66
2023-04-08T05:17:27.336Z,102237.78
2023-04-08T05:19:53.845Z,102236.13
2023-04-08T05:22:20.397Z,102234.25
2023-04-08T05:24:47.050Z,102235.28
2023-04-08T05:27:13.493Z,102224.25
2023-04-08T05:29:40.001Z,102250.69
2023-04-08T05:32:06.629Z,102251.75
2023-04-08T05:34:33.125Z,102253.53
2023-04-08T05:36:59.575Z,102247.28
2023-04-08T05:39:26.423Z,102228.81
2023-04-08T05:41:52.957Z,102250.78
2023-04-08T05:44:19.392Z,102250.69
2023-04-08T05:46:45.951Z,102217.31
2023-04-08T05:49:12.610Z,102256.59
2023-04-08T05:51:39.616Z,102267.22
2023-04-08T05:54:05.984Z,102256.50
2023-04-08T05:56:32.357Z,102194.69
2023-04-08T05:58:59.060Z,102261.72
2023-04-08T06:01:26.340Z,102268.94
2023-04-08T06:03:53.187Z,102242.56
2023-04-08T06:06:19.762Z,102238.19
2023-04-08T06:08:47.149Z,102275.97
2023-04-08T06:11:13.805Z,102279.41
2023-04-08T06:13:40.364Z,102282.91
2023-04-08T06:16:14.331Z,102284.53
2023-04-08T06:18:40.974Z,102291.56
2023-04-08T06:21:10.809Z,102300.50
2023-04-08T06:23:37.725Z,102298.47
2023-04-08T06:26:04.922Z,102293.38
2023-04-08T06:28:32.142Z,102294.03
2023-04-08T06:30:59.169Z,102294.78
2023-04-08T06:33:25.901Z,102296.50
2023-04-08T06:35:52.442Z,102305.94
2023-04-08T06:38:19.203Z,102301.66
2023-04-08T06:40:45.783Z,102285.97
2023-04-08T06:43:12.160Z,102312.69
2023-04-08T06:45:38.585Z,102296.16
2023-04-08T06:48:06.697Z,102319.31
2023-04-08T06:50:33.331Z,102320.84
2023-04-08T06:53:00.355Z,102312.34
2023-04-08T06:55:27.058Z,102333.00
2023-04-08T06:57:53.621Z,102327.88
2023-04-08T07:00:20.560Z,102333.00
2023-04-08T07:02:47.138Z,102338.41
2023-04-08T07:05:13.757Z,102324.34
2023-04-08T07:07:40.268Z,102332.91
2023-04-08T07:10:08.848Z,102333.66
2023-04-08T07:12:37.406Z,102339.75
2023-04-08T07:15:04.123Z,102336.16
2023-04-08T07:17:30.968Z,102331.88
2023-04-08T07:19:57.720Z,102333.97
2023-04-08T07:22:24.124Z,102325.50
2023-04-08T07:24:54.323Z,102318.38
2023-04-08T07:27:21.752Z,102342.94
2023-04-08T07:29:53.632Z,102334.97
2023-04-08T07:32:20.792Z,102345.81
2023-04-08T07:34:47.410Z,102352.75
2023-04-08T07:37:13.956Z,102353.78
2023-04-08T07:39:40.423Z,102354.47
2023-04-08T07:42:06.830Z,102301.31
2023-04-08T07:44:33.214Z,102345.22
2023-04-08T07:46:59.605Z,102356.38
2023-04-08T07:49:26.164Z,102362.28
2023-04-08T07:51:53.107Z,102363.31
2023-04-08T07:54:19.637Z,102354.06
2023-04-08T07:56:46.296Z,102354.25
2023-04-08T07:59:12.882Z,102337.63
2023-04-08T08:01:39.395Z,102377.75
2023-04-08T08:04:06.069Z,102371.41
2023-04-08T08:06:32.641Z,102375.47
2023-04-08T08:08:59.865Z,102359.63
2023-04-08T08:11:29.419Z,102376.72
2023-04-08T08:13:55.845Z,102379.28
2023-04-08T08:16:22.840Z,102382.63
2023-04-08T08:18:49.384Z,102381.56
2023-04-08T08:21:15.963Z,102330.19
2023-04-08T08:23:42.631Z,102393.75
2023-04-08T08:26:10.515Z,102390.91
2023-04-08T08:28:37.778Z,102390.72
2023-04-08T08:31:05.884Z,102378.88
2023-04-08T08:33:33.284Z,102390.31
2023-04-08T08:36:00.079Z,102385.56
2023-04-08T08:38:27.112Z,102387.00
2023-04-08T08:40:57.593Z,102392.22
2023-04-08T08:43:24.465Z,102388.69
2023-04-08T08:45:51.311Z,102396.47
2023-04-08T08:48:17.902Z,102387.47
2023-04-08T08:50:44.445Z,102390.53
2023-04-08T08:53:11.050Z,102404.78
2023-04-08T08:56:05.721Z,102413.56
2023-04-08T08:58:28.444Z,102376.22
2023-04-08T09:00:55.104Z,102416.75
2023-04-08T09:03:23.013Z,102398.50
2023-04-08T09:05:53.998Z,102414.38
2023-04-08T09:08:35.356Z,102412.75
2023-04-08T09:11:22.112Z,102409.88
2023-04-08T09:13:48.788Z,102380.78
2023-04-08T09:16:18.294Z,102416.44
2023-04-08T09:18:47.051Z,102415.81
2023-04-08T09:21:14.722Z,102410.00
2023-04-08T09:23:45.807Z,102408.94
2023-04-08T09:26:17.080Z,102418.16
2023-04-08T09:28:57.582Z,102422.28
2023-04-08T09:31:27.823Z,102371.22
2023-04-08T09:33:55.355Z,102426.75
2023-04-08T09:36:22.056Z,102431.22
2023-04-08T09:38:49.044Z,102430.28
2023-04-08T09:41:17.311Z,102434.22
2023-04-08T09:43:52.209Z,102402.91
2023-04-08T09:46:45.548Z,102439.56
2023-04-08T09:49:44.718Z,102428.84
2023-04-08T09:52:15.660Z,102441.91
2023-04-08T09:54:45.492Z,102436.84
2023-04-08T09:57:21.934Z,102430.53
2023-04-08T10:00:04.240Z,102432.34
2023-04-08T10:02:39.282Z,102426.59
2023-04-08T10:05:08.403Z,102434.97
2023-04-08T10:07:36.294Z,102428.44
2023-04-08T10:10:03.942Z,102439.22
2023-04-08T10:12:30.709Z,102438.94
2023-04-08T10:15:24.037Z,102428.78
2023-04-08T10:17:51.681Z,102435.28
2023-04-08T10:20:36.470Z,102434.84
2023-04-08T10:23:04.041Z,102445.03
2023-04-08T10:25:36.043Z,102424.81
2023-04-08T10:28:11.698Z,102438.19
2023-04-08T10:30:38.075Z,102438.38
2023-04-08T10:33:12.238Z,102434.84
2023-04-08T10:35:42.710Z,102440.31
2023-04-08T10:38:09.288Z,102429.97
2023-04-08T10:40:38.986Z,102428.47
2023-04-08T10:43:06.067Z,102425.25
2023-04-08T10:45:32.967Z,102450.50
2023-04-08T10:48:31.900Z,102450.25
2023-04-08T10:51:00.894Z,102455.38
2023-04-08T10:53:28.287Z,102425.34
2023-04-08T10:56:03.232Z,102451.75
2023-04-08T10:58:30.315Z,102447.00
2023-04-08T11:01:08.475Z,102447.25
2023-04-08T11:03:37.087Z,102455.25
2023-04-08T11:06:04.344Z,102454.28
2023-04-08T11:08:34.989Z,102450.22
2023-04-08T11:11:05.534Z,102447.66
2023-04-08T11:13:33.300Z,102458.66
2023-04-08T11:16:00.596Z,102468.38
2023-04-08T11:18:27.361Z,102457.69
2023-04-08T11:20:54.285Z,102467.75
2023-04-08T11:23:22.822Z,102429.69
2023-04-08T11:25:50.781Z,102457.06
2023-04-08T11:28:18.271Z,102432.47
2023-04-08T11:30:44.773Z,102456.53
2023-04-08T11:33:13.165Z,102459.09
2023-04-08T11:35:43.959Z,102455.16
2023-04-08T11:38:11.638Z,102461.13
2023-04-08T11:40:38.564Z,102446.31
2023-04-08T11:43:15.407Z,102437.09
2023-04-08T11:45:42.729Z,102454.63
2023-04-08T11:48:14.042Z,102454.13
2023-04-08T11:50:41.859Z,102454.88
2023-04-08T11:53:21.931Z,102456.69
2023-04-08T11:55:49.149Z,102446.63
2023-04-08T11:58:15.857Z,102456.03
2023-04-08T12:00:43.617Z,102387.06
2023-04-08T12:03:10.909Z,102470.09
2023-04-08T12:05:37.771Z,102468.53
2023-04-08T12:08:04.319Z,102409.69
2023-04-08T12:10:31.165Z,102465.72
2023-04-08T12:12:57.600Z,102417.59
2023-04-08T12:15:24.043Z,102427.22
2023-04-08T12:17:50.512Z,102451.06
2023-04-08T12:20:17.294Z,102447.44
2023-04-08T12:22:43.802Z,102475.88
2023-04-08T12:25:10.335Z,102476.66
2023-04-08T12:27:36.802Z,102471.91
2023-04-08T12:30:04.158Z,102432.50
2023-04-08T12:32:30.794Z,102462.66
2023-04-08T12:34:57.323Z,102462.75
2023-04-08T12:37:24.183Z,102464.34
2023-04-08T12:39:50.607Z,102464.06
2023-04-08T12:42:17.152Z,102470.03
2023-04-08T12:44:43.687Z,102461.38
2023-04-08T12:47:10.337Z,102467.47
2023-04-08T12:49:48.626Z,102474.44
2023-04-08T12:52:16.055Z,102478.72
2023-04-08T12:54:42.919Z,102475.06
2023-04-08T12:57:09.357Z,102477.50
2023-04-08T12:59:35.978Z,102433.91
2023-04-08T13:02:02.515Z,102481.28
2023-04-08T13:04:29.059Z,102441.91
2023-04-08T13:06:56.376Z,102472.06
2023-04-08T13:09:22.932Z,102449.63
2023-04-08T13:11:49.524Z,102462.03
2023-04-08T13:14:16.394Z,102485.84
2023-04-08T13:16:42.855Z,102481.47
2023-04-08T13:19:09.335Z,102477.72
2023-04-08T13:21:35.743Z,102468.63
2023-04-08T13:24:02.370Z,102448.00
2023-04-08T13:26:28.912Z,102481.03
2023-04-08T13:28:57.697Z,102480.28
2023-04-08T13:31:24.982Z,102488.09
2023-04-08T13:33:51.648Z,102486.06
2023-04-08T13:36:18.100Z,102483.41
2023-04-08T13:38:46.195Z,102495.81
2023-04-08T13:41:12.756Z,102481.38
2023-04-08T13:43:39.162Z,102488.63
2023-04-08T13:46:05.754Z,102487.56
2023-04-08T13:48:32.256Z,102489.38
2023-04-08T13:50:58.649Z,102451.97
2023-04-08T13:53:25.135Z,102483.81
2023-04-08T13:55:55.064Z,102482.75
2023-04-08T13:58:24.150Z,102481.25
2023-04-08T14:00:54.234Z,102449.09
2023-04-08T14:03:20.833Z,102479.22
2023-04-08T14:05:47.655Z,102478.25
2023-04-08T14:08:14.199Z,102483.34
2023-04-08T14:10:42.135Z,102481.31
2023-04-08T14:13:09.250Z,102484.38
2023-04-08T14:15:36.160Z,102456.31
2023-04-08T14:18:02.914Z,102473.28
2023-04-08T14:20:29.851Z,102484.19
2023-04-08T14:22:56.681Z,102485.03
2023-04-08T14:25:23.712Z,102466.84
2023-04-08T14:27:57.985Z,102431.47
2023-04-08T14:30:25.334Z,102449.88
2023-04-08T14:32:52.050Z,102459.19
2023-04-08T14:35:18.556Z,102485.50
2023-04-08T14:37:45.173Z,102439.53
2023-04-08T14:40:12.144Z,102474.47
2023-04-08T14:42:38.563Z,102478.84
2023-04-08T14:45:05.412Z,102411.09
2023-04-08T14:47:31.918Z,102483.81
2023-04-08T14:49:58.363Z,102477.81
2023-04-08T14:52:24.940Z,102450.13
2023-04-08T14:54:52.701Z,102472.06
2023-04-08T14:57:20.068Z,102481.31
2023-04-08T14:59:46.572Z,102474.47
2023-04-08T15:02:13.261Z,102483.25
2023-04-08T15:04:39.870Z,102449.66
2023-04-08T15:07:06.712Z,102468.72
2023-04-08T15:09:33.380Z,102471.59
2023-04-08T15:12:00.017Z,102459.38
2023-04-08T15:14:26.697Z,102478.31
2023-04-08T15:16:53.356Z,102466.63
2023-04-08T15:19:20.216Z,102473.03
2023-04-08T15:21:47.344Z,102453.47
2023-04-08T15:24:14.082Z,102480.94
2023-04-08T15:26:41.089Z,102473.56
2023-04-08T15:29:07.906Z,102479.56
2023-04-08T15:31:35.288Z,102484.16
2023-04-08T15:34:03.492Z,102467.13
2023-04-08T15:36:30.756Z,102454.81
2023-04-08T15:38:57.226Z,102489.97
2023-04-08T15:41:24.043Z,102488.59
2023-04-08T15:43:53.089Z,102495.53
2023-04-08T15:46:25.785Z,102497.66
2023-04-08T15:48:52.577Z,102494.41
2023-04-08T15:51:20.262Z,102507.97
2023-04-08T15:53:47.140Z,102505.50
2023-04-08T15:56:18.029Z,102487.22
2023-04-08T15:58:46.342Z,102510.09
2023-04-08T16:01:13.302Z,102497.59
2023-04-08T16:03:39.818Z,102437.72
2023-04-08T16:06:06.632Z,102497.78
2023-04-08T16:08:34.660Z,102508.06
2023-04-08T16:11:02.720Z,102499.00
2023-04-08T16:13:30.178Z,102462.84
2023-04-08T16:15:58.171Z,102502.31
2023-04-08T16:18:25.204Z,102484.88
2023-04-08T16:20:51.751Z,102486.16
2023-04-08T16:23:18.301Z,102504.81
2023-04-08T16:25:45.360Z,102488.53
2023-04-08T16:28:12.405Z,102497.84
2023-04-08T16:30:38.974Z,102498.81
2023-04-08T16:33:06.162Z,102506.41
2023-04-08T16:35:32.814Z,102499.56
2023-04-08T16:37:59.505Z,102504.50
2023-04-08T16:40:26.227Z,102501.84
2023-04-08T16:42:53.370Z,102509.63
2023-04-08T16:45:19.857Z,102506.09
2023-04-08T16:47:46.581Z,102508.66
2023-04-08T16:50:13.133Z,102511.56
2023-04-08T16:52:39.869Z,102506.50
2023-04-08T16:55:06.810Z,102505.56
2023-04-08T16:57:33.369Z,102502.13
2023-04-08T16:59:59.783Z,102499.00
2023-04-08T17:02:26.484Z,102499.41
2023-04-08T17:04:53.055Z,102462.84
2023-04-08T17:07:19.519Z,102477.34
2023-04-08T17:09:49.666Z,102492.94
2023-04-08T17:12:16.301Z,102484.56
2023-04-08T17:14:42.858Z,102511.31
2023-04-08T17:17:09.396Z,102510.47
2023-04-08T17:19:36.693Z,102508.09
2023-04-08T17:22:03.280Z,102518.56
2023-04-08T17:24:29.878Z,102517.91
2023-04-08T17:26:59.989Z,102485.25
2023-04-08T17:29:26.449Z,102527.94
2023-04-08T17:31:53.220Z,102475.25
2023-04-08T17:34:19.673Z,102523.47
2023-04-08T17:36:46.260Z,102513.84
2023-04-08T17:39:12.749Z,102517.19
2023-04-08T17:41:40.703Z,102522.19
2023-04-08T17:44:07.813Z,102521.34
2023-04-08T17:46:34.260Z,102526.66
2023-04-08T17:49:00.729Z,102526.78
2023-04-08T17:51:28.714Z,102481.53
2023-04-08T17:53:55.227Z,102517.28
2023-04-08T17:56:23.159Z,102530.53
2023-04-08T17:58:49.572Z,102525.19
2023-04-08T18:01:16.110Z,102524.31
2023-04-08T18:03:42.615Z,102476.22
2023-04-08T18:06:09.220Z,102513.03
2023-04-08T18:08:35.768Z,102516.56
2023-04-08T18:11:05.826Z,102527.84
2023-04-08T18:13:32.704Z,102538.53
2023-04-08T18:15:59.628Z,102527.00
2023-04-08T18:18:26.028Z,102536.72
2023-04-08T18:20:52.582Z,102477.38
2023-04-08T18:23:19.002Z,102521.53
2023-04-08T18:25:50.114Z,102508.41
2023-04-08T18:28:16.535Z,102530.88
2023-04-08T18:30:43.330Z,102540.34
2023-04-08T18:33:09.772Z,102540.44
2023-04-08T18:35:36.871Z,102540.44
2023-04-08T18:38:03.401Z,102463.50
2023-04-08T18:40:31.159Z,102550.25
2023-04-08T18:43:01.881Z,102539.56
2023-04-08T18:45:29.277Z,102540.44
2023-04-08T18:47:55.918Z,102539.81
2023-04-08T18:50:22.788Z,102560.06
2023-04-08T18:52:49.787Z,102517.75
2023-04-08T18:55:16.615Z,102562.72
2023-04-08T18:57:43.123Z,102564.53
2023-04-08T19:00:09.848Z,102567.25
2023-04-08T19:02:36.338Z,102558.34
2023-04-08T19:05:02.862Z,102548.19
2023-04-08T19:07:29.300Z,102559.44
2023-04-08T19:09:57.629Z,102550.00
2023-04-08T19:12:24.586Z,102568.13
2023-04-08T19:14:51.139Z,102564.59
2023-04-08T19:17:17.617Z,102562.88
2023-04-08T19:19:44.098Z,102560.50
2023-04-08T19:22:10.659Z,102557.06
2023-04-08T19:24:37.691Z,102545.66
2023-04-08T19:27:04.412Z,102566.50
2023-04-08T19:29:33.576Z,102540.78
2023-04-08T19:32:01.578Z,102544.56
2023-04-08T19:34:28.154Z,102547.06
2023-04-08T19:36:54.669Z,102509.56
2023-04-08T19:39:21.226Z,102510.31
2023-04-08T19:41:48.113Z,102548.78
2023-04-08T19:44:14.644Z,102548.88
2023-04-08T19:46:41.210Z,102553.34
2023-04-08T19:49:07.862Z,102510.41
2023-04-08T19:51:34.298Z,102545.44
2023-04-08T19:54:00.732Z,102546.38
2023-04-08T19:56:27.820Z,102542.13
2023-04-08T19:58:54.485Z,102525.06
2023-04-08T20:01:21.195Z,102552.59
2023-04-08T20:03:52.193Z,102556.09
2023-04-08T20:06:19.580Z,102510.63
2023-04-08T20:08:46.365Z,102533.84
2023-04-08T20:11:13.777Z,102543.38
2023-04-08T20:13:40.425Z,102559.63
2023-04-08T20:16:07.625Z,102560.03
2023-04-08T20:18:34.337Z,102565.16
2023-04-08T20:21:01.058Z,102567.63
2023-04-08T20:23:28.452Z,102545.63
2023-04-08T20:25:55.102Z,102566.41
2023-04-08T20:28:21.616Z,102559.38
2023-04-08T20:30:48.162Z,102558.59
2023-04-08T20:33:14.619Z,102572.09
2023-04-08T20:35:41.385Z,102575.63
2023-04-08T20:38:07.956Z,102555.34
2023-04-08T20:40:34.346Z,102573.91
2023-04-08T20:43:01.035Z,102576.59
2023-04-08T20:45:28.215Z,102578.31
2023-04-08T20:47:55.586Z,102561.94
2023-04-08T20:50:22.106Z,102579.16
2023-04-08T20:52:48.576Z,102556.13
2023-04-08T20:55:15.490Z,102574.78
2023-04-08T20:57:42.098Z,102576.50
2023-04-08T21:00:09.600Z,102574.78
2023-04-08T21:02:36.362Z,102540.53
2023-04-08T21:05:03.243Z,102560.22
2023-04-08T21:07:30.374Z,102581.66
2023-04-08T21:09:56.861Z,102563.66
2023-04-08T21:12:23.293Z,102573.72
2023-04-08T21:14:50.807Z,102582.69
2023-04-08T21:17:17.475Z,102567.72
2023-04-08T21:19:43.920Z,102579.16
2023-04-08T21:22:10.465Z,102576.50
2023-04-08T21:24:38.009Z,102581.81
2023-04-08T21:27:04.509Z,102566.22
2023-04-08T21:29:31.045Z,102571.56
2023-04-08T21:31:57.539Z,102580.97
2023-04-08T21:34:24.023Z,102577.53
2023-04-08T21:36:50.827Z,102581.91
2023-04-08T21:39:17.529Z,102581.28
2023-04-08T21:41:43.956Z,102576.81
2023-04-08T21:44:10.495Z,102563.44
2023-04-08T21:46:36.967Z,102590.31
2023-04-08T21:49:03.372Z,102587.84
2023-04-08T21:51:29.937Z,102556.13
2023-04-08T21:53:56.386Z,102583.19
2023-04-08T21:56:24.484Z,102581.38
2023-04-08T21:58:51.265Z,102575.47
2023-04-08T22:01:18.044Z,102582.22
2023-04-08T22:03:44.882Z,102587.47
2023-04-08T22:06:19.173Z,102579.47
2023-04-08T22:08:52.395Z,102582.88
2023-04-08T22:11:19.111Z,102556.44
2023-04-08T22:13:45.596Z,102588.44
2023-04-08T22:16:12.172Z,102573.38
2023-04-08T22:18:38.618Z,102561.63
2023-04-08T22:21:05.186Z,102591.72
2023-04-08T22:23:31.761Z,102575.19
2023-04-08T22:25:58.311Z,102557.47
2023-04-08T22:28:24.774Z,102570.31
2023-04-08T22:30:51.412Z,102567.38
2023-04-08T22:33:17.964Z,102551.19
2023-04-08T22:35:44.521Z,102589.94
2023-04-08T22:38:11.573Z,102573.75
2023-04-08T22:40:38.246Z,102589.06
2023-04-08T22:43:04.680Z,102544.69
2023-04-08T22:45:31.329Z,102591.09
2023-04-08T22:47:57.850Z,102590.88
2023-04-08T22:50:24.507Z,102544.50
2023-04-08T22:52:51.075Z,102566.78
2023-04-08T22:55:17.518Z,102571.25
2023-04-08T22:57:43.966Z,102578.81
2023-04-08T23:00:11.328Z,102585.09
2023-04-08T23:02:38.967Z,102575.19
2023-04-08T23:05:06.094Z,102582.31
2023-04-08T23:07:32.601Z,102584.81
2023-04-08T23:09:59.221Z,102584.91
2023-04-08T23:12:25.744Z,102589.28
2023-04-08T23:14:52.192Z,102574.59
2023-04-08T23:17:18.660Z,102585.09
2023-04-08T23:19:45.091Z,102596.63
2023-04-08T23:22:11.518Z,102603.84
2023-04-08T23:24:37.966Z,102595.94
2023-04-08T23:27:04.400Z,102532.31
2023-04-08T23:29:31.479Z,102595.16
2023-04-08T23:31:57.984Z,102546.91
2023-04-08T23:34:24.462Z,102586.31
2023-04-08T23:36:50.920Z,102559.66
2023-04-08T23:39:17.442Z,102584.50
2023-04-08T23:41:43.866Z,102582.78
2023-04-08T23:44:10.418Z,102567.47
2023-04-08T23:46:37.017Z,102588.13
2023-04-08T23:49:03.570Z,102576.59
2023-04-08T23:51:30.059Z,102542.34
2023-04-08T23:53:56.436Z,102544.91
2023-04-08T23:56:22.958Z,102574.59
2023-04-08T23:58:49.544Z,102578.72
